createdAt,value
2023-03-19T00:01:15.417Z,29.10
2023-03-19T00:03:46.510Z,26.90
2023-03-19T00:06:14.967Z,35.60
2023-03-19T00:08:44.983Z,28.60
2023-03-19T00:11:13.445Z,27.00
2023-03-19T00:13:41.545Z,26.00
2023-03-19T00:16:09.639Z,27.40
2023-03-19T00:18:38.322Z,23.20
2023-03-19T00:21:08.365Z,25.60
2023-03-19T00:23:37.508Z,26.10
2023-03-19T00:26:06.823Z,27.60
2023-03-19T00:28:37.118Z,26.00
2023-03-19T00:31:15.507Z,23.60
2023-03-19T00:36:01.517Z,28.30
2023-03-19T00:38:29.530Z,30.00
2023-03-19T00:40:58.206Z,34.70
2023-03-19T00:43:25.357Z,24.80
2023-03-19T00:45:59.003Z,26.30
2023-03-19T00:48:25.800Z,30.50
2023-03-19T00:50:52.543Z,30.80
2023-03-19T00:53:19.564Z,30.70
2023-03-19T00:55:46.564Z,32.40
2023-03-19T00:58:18.429Z,38.90
2023-03-19T01:00:46.846Z,41.50
2023-03-19T01:03:14.947Z,41.30
2023-03-19T01:05:41.694Z,50.20
2023-03-19T01:08:09.312Z,55.30
2023-03-19T01:10:36.391Z,49.60
2023-03-19T01:13:05.013Z,46.70
2023-03-19T01:15:40.141Z,47.40
2023-03-19T01:18:07.253Z,45.80
2023-03-19T01:20:38.556Z,48.00
2023-03-19T01:23:06.106Z,41.20
2023-03-19T01:25:33.248Z,41.80
2023-03-19T01:28:02.618Z,41.30
2023-03-19T01:30:29.976Z,36.80
2023-03-19T01:33:06.798Z,36.90
2023-03-19T01:36:08.074Z,37.00
2023-03-19T01:38:42.686Z,34.40
2023-03-19T01:41:14.381Z,35.70
2023-03-19T01:43:41.229Z,32.30
2023-03-19T01:46:26.935Z,33.00
2023-03-19T01:49:13.427Z,32.60
2023-03-19T01:51:42.626Z,29.60
2023-03-19T01:54:26.419Z,27.70
2023-03-19T01:57:20.402Z,27.70
2023-03-19T02:00:08.046Z,30.10
2023-03-19T02:02:47.306Z,28.30
2023-03-19T02:05:25.007Z,29.70
2023-03-19T02:08:00.462Z,32.50
2023-03-19T02:10:28.466Z,31.40
2023-03-19T02:12:55.521Z,31.00
2023-03-19T02:15:25.594Z,35.40
2023-03-19T02:17:53.866Z,35.00
2023-03-19T02:20:32.091Z,37.20
2023-03-19T02:23:20.770Z,33.30
2023-03-19T02:26:06.685Z,36.80
2023-03-19T02:28:36.740Z,36.80
2023-03-19T02:31:03.626Z,35.20
2023-03-19T02:33:30.712Z,34.80
2023-03-19T02:35:57.483Z,31.50
2023-03-19T02:38:25.531Z,34.10
2023-03-19T02:41:03.990Z,36.20
2023-03-19T02:43:34.241Z,33.70
2023-03-19T02:46:02.733Z,34.70
2023-03-19T02:48:32.045Z,37.00
2023-03-19T02:50:58.687Z,34.60
2023-03-19T02:53:25.824Z,34.80
2023-03-19T02:55:52.676Z,33.90
2023-03-19T02:58:19.678Z,34.50
2023-03-19T03:00:46.611Z,35.10
2023-03-19T03:03:14.353Z,32.30
2023-03-19T03:05:41.097Z,35.20
2023-03-19T03:08:08.740Z,32.20
2023-03-19T03:10:36.147Z,31.90
2023-03-19T03:13:08.891Z,34.80
2023-03-19T03:15:37.497Z,33.80
2023-03-19T03:18:05.566Z,37.10
2023-03-19T03:20:35.992Z,35.30
2023-03-19T03:23:04.774Z,32.60
2023-03-19T03:25:31.622Z,37.20
2023-03-19T03:27:59.376Z,33.90
2023-03-19T03:30:26.400Z,28.10
2023-03-19T03:32:53.251Z,34.80
2023-03-19T03:35:22.824Z,34.90
2023-03-19T03:37:50.534Z,36.80
2023-03-19T03:40:25.076Z,36.20
2023-03-19T03:42:52.106Z,34.50
2023-03-19T03:45:18.929Z,33.40
2023-03-19T03:47:46.818Z,32.90
2023-03-19T03:50:13.649Z,34.80
2023-03-19T03:52:41.440Z,40.30
2023-03-19T03:55:08.697Z,31.80
2023-03-19T03:57:35.613Z,35.70
2023-03-19T04:00:05.971Z,38.50
2023-03-19T04:02:41.608Z,37.00
2023-03-19T04:05:09.426Z,40.40
2023-03-19T04:07:37.243Z,35.20
2023-03-19T04:10:05.073Z,34.30
2023-03-19T04:12:32.255Z,35.40
2023-03-19T04:15:01.345Z,34.20
2023-03-19T04:17:28.999Z,42.80
2023-03-19T04:19:55.831Z,32.40
2023-03-19T04:22:27.087Z,39.30
2023-03-19T04:24:54.123Z,37.40
2023-03-19T04:27:21.565Z,37.20
2023-03-19T04:29:50.558Z,36.40
2023-03-19T04:32:17.960Z,34.40
2023-03-19T04:34:45.273Z,38.90
2023-03-19T04:37:11.884Z,39.90
2023-03-19T04:39:45.226Z,41.20
2023-03-19T04:42:13.110Z,40.20
2023-03-19T04:44:52.912Z,40.90
2023-03-19T04:47:23.543Z,39.50
2023-03-19T04:49:56.835Z,40.30
2023-03-19T04:52:24.824Z,40.00
2023-03-19T04:54:52.381Z,40.00
2023-03-19T04:57:19.599Z,38.10
2023-03-19T04:59:49.234Z,33.10
2023-03-19T05:02:17.560Z,32.70
2023-03-19T05:04:44.336Z,41.70
2023-03-19T05:07:13.528Z,39.50
2023-03-19T05:09:42.551Z,41.60
2023-03-19T05:12:13.486Z,39.50
2023-03-19T05:14:45.857Z,40.10
2023-03-19T05:17:19.647Z,38.20
2023-03-19T05:20:12.126Z,36.10
2023-03-19T05:22:46.137Z,34.00
2023-03-19T05:25:14.169Z,41.60
2023-03-19T05:27:41.457Z,39.10
2023-03-19T05:30:12.443Z,31.60
2023-03-19T05:32:52.459Z,39.30
2023-03-19T05:35:31.837Z,38.80
2023-03-19T05:37:59.079Z,39.10
2023-03-19T05:40:26.052Z,35.30
2023-03-19T05:42:53.676Z,36.70
2023-03-19T05:45:26.768Z,37.30
2023-03-19T05:47:57.201Z,35.10
2023-03-19T05:50:24.581Z,33.60
2023-03-19T05:53:12.464Z,38.00
2023-03-19T05:55:40.814Z,35.00
2023-03-19T05:58:10.652Z,33.60
2023-03-19T06:00:37.312Z,33.80
2023-03-19T06:03:05.012Z,34.70
2023-03-19T06:05:31.958Z,32.20
2023-03-19T06:08:05.080Z,31.40
2023-03-19T06:10:52.341Z,31.40
2023-03-19T06:13:20.043Z,31.90
2023-03-19T06:16:00.664Z,30.20
2023-03-19T06:18:35.979Z,30.60
2023-03-19T06:21:07.583Z,31.50
2023-03-19T06:23:35.504Z,30.40
2023-03-19T06:26:07.084Z,31.90
2023-03-19T06:28:53.824Z,29.50
2023-03-19T06:31:21.908Z,27.50
2023-03-19T06:33:59.555Z,31.80
2023-03-19T06:36:31.724Z,31.90
2023-03-19T06:39:05.371Z,28.10
2023-03-19T06:41:32.867Z,31.20
2023-03-19T06:44:08.846Z,30.00
2023-03-19T06:46:37.488Z,29.80
2023-03-19T06:49:04.287Z,31.10
2023-03-19T06:51:36.881Z,29.80
2023-03-19T06:54:03.603Z,29.00
2023-03-19T06:56:30.958Z,30.70
2023-03-19T06:58:57.938Z,23.10
2023-03-19T07:01:25.189Z,29.90
2023-03-19T07:03:52.477Z,25.90
2023-03-19T07:06:22.872Z,27.10
2023-03-19T07:08:50.562Z,27.90
2023-03-19T07:11:17.680Z,24.90
2023-03-19T07:13:46.010Z,23.50
2023-03-19T07:16:13.440Z,23.80
2023-03-19T07:18:45.977Z,19.00
2023-03-19T07:21:12.509Z,18.20
2023-03-19T07:23:39.600Z,17.60
2023-03-19T07:26:12.687Z,18.60
2023-03-19T07:28:39.474Z,21.20
2023-03-19T07:31:06.641Z,20.10
2023-03-19T07:33:40.870Z,21.10
2023-03-19T07:36:08.481Z,20.70
2023-03-19T07:38:35.270Z,19.20
2023-03-19T07:41:03.042Z,20.80
2023-03-19T07:43:30.917Z,20.50
2023-03-19T07:45:58.165Z,20.40
2023-03-19T07:48:25.556Z,20.90
2023-03-19T07:50:53.506Z,17.50
2023-03-19T07:53:22.207Z,17.70
2023-03-19T07:55:49.123Z,20.00
2023-03-19T07:58:16.443Z,21.80
2023-03-19T08:00:45.578Z,20.70
2023-03-19T08:03:12.538Z,17.90
2023-03-19T08:05:39.237Z,16.60
2023-03-19T08:08:08.163Z,15.20
2023-03-19T08:10:37.914Z,14.80
2023-03-19T08:13:06.591Z,16.50
2023-03-19T08:15:35.844Z,14.90
2023-03-19T08:18:04.329Z,16.10
2023-03-19T08:20:32.214Z,14.00
2023-03-19T08:23:00.338Z,13.00
2023-03-19T08:25:31.691Z,13.50
2023-03-19T08:28:01.289Z,12.80
2023-03-19T08:30:28.620Z,14.70
2023-03-19T08:32:55.750Z,13.30
2023-03-19T08:35:26.476Z,14.00
2023-03-19T08:37:54.164Z,14.90
2023-03-19T08:40:21.647Z,12.50
2023-03-19T08:42:48.447Z,13.10
2023-03-19T08:45:16.827Z,12.90
2023-03-19T08:47:43.522Z,13.00
2023-03-19T08:50:15.664Z,12.00
2023-03-19T08:52:43.252Z,12.70
2023-03-19T08:55:10.035Z,11.20
2023-03-19T08:57:38.103Z,11.60
2023-03-19T09:00:08.515Z,10.80
2023-03-19T09:02:36.336Z,11.10
2023-03-19T09:05:03.705Z,9.80
2023-03-19T09:07:30.654Z,10.70
2023-03-19T09:09:57.734Z,9.50
2023-03-19T09:12:25.538Z,9.40
2023-03-19T09:14:52.876Z,10.40
2023-03-19T09:17:20.960Z,10.50
2023-03-19T09:19:47.861Z,10.80
2023-03-19T09:22:15.077Z,10.20
2023-03-19T09:24:43.763Z,10.30
2023-03-19T09:27:11.317Z,10.90
2023-03-19T09:29:38.652Z,10.90
2023-03-19T09:32:11.924Z,10.70
2023-03-19T09:34:38.527Z,10.30
2023-03-19T09:37:05.649Z,10.60
2023-03-19T09:39:35.869Z,11.20
2023-03-19T09:42:15.528Z,10.60
2023-03-19T09:44:45.002Z,11.00
2023-03-19T09:47:31.016Z,10.20
2023-03-19T09:50:13.210Z,11.40
2023-03-19T09:53:11.711Z,12.00
2023-03-19T09:55:47.559Z,11.30
2023-03-19T09:58:34.926Z,9.30
2023-03-19T10:01:02.167Z,9.00
2023-03-19T10:03:38.770Z,8.30
2023-03-19T10:06:26.571Z,9.70
2023-03-19T10:09:21.265Z,11.00
2023-03-19T10:11:53.723Z,10.70
2023-03-19T10:14:51.778Z,10.20
2023-03-19T10:17:20.498Z,10.80
2023-03-19T10:19:57.478Z,10.70
2023-03-19T10:22:30.163Z,7.90
2023-03-19T10:24:59.386Z,13.40
2023-03-19T10:27:33.327Z,10.60
2023-03-19T10:30:01.507Z,8.70
2023-03-19T10:32:40.251Z,9.50
2023-03-19T10:35:16.123Z,9.30
2023-03-19T10:37:43.355Z,9.50
2023-03-19T10:40:48.502Z,8.60
2023-03-19T10:43:23.255Z,9.00
2023-03-19T10:45:51.505Z,8.20
2023-03-19T10:48:19.451Z,7.50
2023-03-19T10:50:49.718Z,8.70
2023-03-19T10:53:22.785Z,8.20
2023-03-19T10:55:54.984Z,8.00
2023-03-19T10:58:25.828Z,7.90
2023-03-19T11:00:57.486Z,8.50
2023-03-19T11:03:34.653Z,8.40
2023-03-19T11:06:31.897Z,8.90
2023-03-19T11:09:08.542Z,8.30
2023-03-19T11:11:52.792Z,9.00
2023-03-19T11:14:21.534Z,9.30
2023-03-19T11:16:58.697Z,9.50
2023-03-19T11:19:28.877Z,9.70
2023-03-19T11:22:07.392Z,9.20
2023-03-19T11:24:41.409Z,9.20
2023-03-19T11:27:08.668Z,8.60
2023-03-19T11:29:41.546Z,9.30
2023-03-19T11:32:31.289Z,8.70
2023-03-19T11:35:01.259Z,8.50
2023-03-19T11:37:52.958Z,9.20
2023-03-19T11:40:25.302Z,8.20
2023-03-19T11:43:17.004Z,8.30
2023-03-19T11:46:07.896Z,7.90
2023-03-19T11:49:12.813Z,8.40
2023-03-19T11:52:12.303Z,8.00
2023-03-19T11:55:01.100Z,9.30
2023-03-19T11:57:52.301Z,7.80
2023-03-19T12:00:51.741Z,8.00
2023-03-19T12:03:48.383Z,8.40
2023-03-19T12:06:29.034Z,9.30
2023-03-19T12:09:15.328Z,9.30
2023-03-19T12:12:03.950Z,8.50
2023-03-19T12:14:38.185Z,9.10
2023-03-19T12:17:13.640Z,8.60
2023-03-19T12:20:25.546Z,8.60
2023-03-19T12:23:08.728Z,8.70
2023-03-19T12:25:59.709Z,8.90
2023-03-19T12:28:35.303Z,9.00
2023-03-19T12:31:06.204Z,8.90
2023-03-19T12:34:08.833Z,9.10
2023-03-19T12:36:41.730Z,8.60
2023-03-19T12:39:14.129Z,8.90
2023-03-19T12:41:42.651Z,10.00
2023-03-19T12:44:29.420Z,10.90
2023-03-19T12:46:59.301Z,10.10
2023-03-19T12:49:38.696Z,10.00
2023-03-19T12:52:52.419Z,10.40
2023-03-19T12:55:22.367Z,11.20
2023-03-19T12:58:09.191Z,11.50
2023-03-19T13:00:45.105Z,11.50
2023-03-19T13:03:19.619Z,10.00
2023-03-19T13:06:06.088Z,10.10
2023-03-19T13:09:04.530Z,11.30
2023-03-19T13:12:06.879Z,12.60
2023-03-19T13:14:44.099Z,13.90
2023-03-19T13:17:23.274Z,14.30
2023-03-19T13:19:54.492Z,14.00
2023-03-19T13:22:31.145Z,17.30
2023-03-19T13:24:59.165Z,16.50
2023-03-19T13:27:31.146Z,16.20
2023-03-19T13:30:26.517Z,15.10
2023-03-19T13:33:04.858Z,14.50
2023-03-19T13:35:40.595Z,13.90
2023-03-19T13:38:15.667Z,11.60
2023-03-19T13:40:54.682Z,14.60
2023-03-19T13:43:43.225Z,11.10
2023-03-19T13:46:12.303Z,11.10
2023-03-19T13:48:50.372Z,11.30
2023-03-19T13:51:23.899Z,25.30
2023-03-19T13:53:54.257Z,17.80
2023-03-19T13:56:30.334Z,12.80
2023-03-19T13:59:17.159Z,16.20
2023-03-19T14:01:45.746Z,15.80
2023-03-19T14:04:20.914Z,14.40
2023-03-19T14:06:53.630Z,12.70
2023-03-19T14:09:42.313Z,12.50
2023-03-19T14:12:16.532Z,11.90
2023-03-19T14:14:53.120Z,11.90
2023-03-19T14:17:33.322Z,13.10
2023-03-19T14:20:15.217Z,11.80
2023-03-19T14:23:02.484Z,11.10
2023-03-19T14:25:52.786Z,12.50
2023-03-19T14:28:32.330Z,12.80
2023-03-19T14:31:00.715Z,12.20
2023-03-19T14:33:43.901Z,13.30
2023-03-19T14:36:17.428Z,12.80
2023-03-19T14:39:02.062Z,13.20
2023-03-19T14:41:33.760Z,12.90
2023-03-19T14:44:08.271Z,12.30
2023-03-19T14:46:49.846Z,12.70
2023-03-19T14:52:24.560Z,12.60
2023-03-19T14:55:00.985Z,11.60
2023-03-19T14:57:31.205Z,13.30
2023-03-19T14:59:59.354Z,11.90
2023-03-19T15:02:30.958Z,11.90
2023-03-19T15:05:00.704Z,13.10
2023-03-19T15:07:39.905Z,13.00
2023-03-19T15:10:13.567Z,12.50
2023-03-19T15:13:09.274Z,12.10
2023-03-19T15:15:51.511Z,13.90
2023-03-19T15:18:22.646Z,14.40
2023-03-19T15:20:54.537Z,13.80
2023-03-19T15:23:28.619Z,13.40
2023-03-19T15:26:01.041Z,12.20
2023-03-19T15:28:46.968Z,13.50
2023-03-19T15:31:46.296Z,12.00
2023-03-19T15:34:20.605Z,13.80
2023-03-19T15:36:55.670Z,15.10
2023-03-19T15:39:25.734Z,13.00
2023-03-19T15:41:54.118Z,13.30
2023-03-19T15:44:44.461Z,12.50
2023-03-19T15:47:18.223Z,11.30
2023-03-19T15:49:53.097Z,14.50
2023-03-19T15:52:21.120Z,13.70
2023-03-19T15:54:52.441Z,14.00
2023-03-19T15:57:21.273Z,13.90
2023-03-19T15:59:52.501Z,12.20
2023-03-19T16:02:30.348Z,13.70
2023-03-19T16:05:22.455Z,17.60
2023-03-19T16:07:54.605Z,14.30
2023-03-19T16:10:35.538Z,14.00
2023-03-19T16:13:18.674Z,38.00
2023-03-19T16:15:48.956Z,35.90
2023-03-19T16:18:18.957Z,34.90
2023-03-19T16:21:01.064Z,67.00
2023-03-19T16:23:32.516Z,39.70
2023-03-19T16:26:15.731Z,48.10
2023-03-19T16:28:46.638Z,49.00
2023-03-19T16:31:25.983Z,23.90
2023-03-19T16:33:54.905Z,28.70
2023-03-19T16:36:28.858Z,23.80
2023-03-19T16:39:34.138Z,20.50
2023-03-19T16:42:25.353Z,47.60
2023-03-19T16:44:53.628Z,32.50
2023-03-19T16:47:22.395Z,15.10
2023-03-19T16:49:52.524Z,21.10
2023-03-19T16:52:22.289Z,32.00
2023-03-19T16:54:55.758Z,28.70
2023-03-19T16:57:24.348Z,38.40
2023-03-19T16:59:52.386Z,43.50
2023-03-19T17:02:21.343Z,44.20
2023-03-19T17:04:49.750Z,42.20
2023-03-19T17:07:17.787Z,24.70
2023-03-19T17:09:47.198Z,26.70
2023-03-19T17:12:16.115Z,26.50
2023-03-19T17:14:52.412Z,16.00
2023-03-19T17:19:48.849Z,19.30
2023-03-19T17:22:19.019Z,38.90
2023-03-19T17:24:47.755Z,54.70
2023-03-19T17:27:16.840Z,109.70
2023-03-19T17:29:46.099Z,42.40
2023-03-19T17:32:17.644Z,29.70
2023-03-19T17:34:52.167Z,23.30
2023-03-19T17:37:21.058Z,20.00
2023-03-19T17:39:49.281Z,19.00
2023-03-19T17:42:19.737Z,18.20
2023-03-19T17:44:48.084Z,19.60
2023-03-19T17:47:17.220Z,20.20
2023-03-19T17:49:47.109Z,21.30
2023-03-19T17:52:16.585Z,22.10
2023-03-19T17:54:47.247Z,21.00
2023-03-19T17:57:16.152Z,20.50
2023-03-19T17:59:44.329Z,19.90
2023-03-19T18:02:28.273Z,18.50
2023-03-19T18:04:56.625Z,18.20
2023-03-19T18:07:24.693Z,18.90
2023-03-19T18:09:53.779Z,19.00
2023-03-19T18:12:22.120Z,17.50
2023-03-19T18:14:50.074Z,18.10
2023-03-19T18:17:20.523Z,18.20
2023-03-19T18:19:50.892Z,29.20
2023-03-19T18:22:23.065Z,22.70
2023-03-19T18:24:51.678Z,20.40
2023-03-19T18:27:19.706Z,20.60
2023-03-19T18:29:52.484Z,19.50
2023-03-19T18:32:32.414Z,25.00
2023-03-19T18:35:01.116Z,31.50
2023-03-19T18:37:30.137Z,18.50
2023-03-19T18:39:58.357Z,18.80
2023-03-19T18:42:33.636Z,21.70
2023-03-19T18:45:01.724Z,27.40
2023-03-19T18:47:29.805Z,20.90
2023-03-19T18:49:58.996Z,22.40
2023-03-19T18:52:27.612Z,25.10
2023-03-19T18:54:55.922Z,31.30
2023-03-19T18:57:23.849Z,24.70
2023-03-19T18:59:52.118Z,21.00
2023-03-19T19:02:29.484Z,19.20
2023-03-19T19:04:58.363Z,26.50
2023-03-19T19:07:26.649Z,24.20
2023-03-19T19:12:25.370Z,24.90
2023-03-19T19:14:53.334Z,19.20
2023-03-19T19:17:24.772Z,19.20
2023-03-19T19:19:54.466Z,20.40
2023-03-19T19:22:22.449Z,18.00
2023-03-19T19:24:50.373Z,19.90
2023-03-19T19:27:20.304Z,18.00
2023-03-19T19:29:51.227Z,22.80
2023-03-19T19:32:25.086Z,22.10
2023-03-19T19:34:53.250Z,24.50
2023-03-19T19:37:23.362Z,31.00
2023-03-19T19:39:51.633Z,48.30
2023-03-19T19:42:21.354Z,42.90
2023-03-19T19:44:56.317Z,30.90
2023-03-19T19:47:24.380Z,29.50
2023-03-19T19:49:58.474Z,34.10
2023-03-19T19:52:28.297Z,29.30
2023-03-19T19:54:56.589Z,27.80
2023-03-19T19:57:25.153Z,23.60
2023-03-19T19:59:54.080Z,24.20
2023-03-19T20:02:28.793Z,25.20
2023-03-19T20:04:57.838Z,29.20
2023-03-19T20:07:25.944Z,27.30
2023-03-19T20:09:54.948Z,27.80
2023-03-19T20:12:26.318Z,28.30
2023-03-19T20:14:54.272Z,28.40
2023-03-19T20:17:24.351Z,29.20
2023-03-19T20:19:52.719Z,23.90
2023-03-19T20:22:21.278Z,25.90
2023-03-19T20:24:51.303Z,27.40
2023-03-19T20:27:26.372Z,26.90
2023-03-19T20:29:54.862Z,26.20
2023-03-19T20:32:36.761Z,26.20
2023-03-19T20:35:23.643Z,23.30
2023-03-19T20:37:53.122Z,28.70
2023-03-19T20:40:22.058Z,34.00
2023-03-19T20:42:52.184Z,32.40
2023-03-19T20:45:22.109Z,30.20
2023-03-19T20:47:53.095Z,28.50
2023-03-19T20:50:26.385Z,24.50
2023-03-19T20:52:56.945Z,29.20
2023-03-19T20:57:54.651Z,28.70
2023-03-19T21:00:27.913Z,31.00
2023-03-19T21:02:57.479Z,30.30
2023-03-19T21:08:06.625Z,29.20
2023-03-19T21:10:39.044Z,27.70
2023-03-19T21:13:12.776Z,27.00
2023-03-19T21:15:41.854Z,25.40
2023-03-19T21:18:10.939Z,27.20
2023-03-19T21:20:41.064Z,28.40
2023-03-19T21:23:17.555Z,26.80
2023-03-19T21:25:49.697Z,29.70
2023-03-19T21:28:30.664Z,29.10
2023-03-19T21:30:58.851Z,28.40
2023-03-19T21:33:27.616Z,31.40
2023-03-19T21:35:56.084Z,46.70
2023-03-19T21:38:24.800Z,53.10
2023-03-19T21:41:04.006Z,57.50
2023-03-19T21:43:36.408Z,40.60
2023-03-19T21:46:21.398Z,45.60
2023-03-19T21:48:52.699Z,42.00
2023-03-19T21:51:21.092Z,38.90
2023-03-19T21:53:49.326Z,38.60
2023-03-19T21:56:22.234Z,35.20
2023-03-19T21:58:52.158Z,35.30
2023-03-19T22:01:23.761Z,33.30
2023-03-19T22:03:52.949Z,28.60
2023-03-19T22:06:22.286Z,31.00
2023-03-19T22:08:51.628Z,27.40
2023-03-19T22:11:26.692Z,26.80
2023-03-19T22:13:58.375Z,31.00
2023-03-19T22:16:29.932Z,29.70
2023-03-19T22:18:58.172Z,26.20
2023-03-19T22:21:26.541Z,32.80
2023-03-19T22:23:54.904Z,29.90
2023-03-19T22:26:27.662Z,29.40
2023-03-19T22:29:07.452Z,32.70
2023-03-19T22:31:36.188Z,31.60
2023-03-19T22:34:04.264Z,28.20
2023-03-19T22:36:32.570Z,31.80
2023-03-19T22:39:00.745Z,31.90
2023-03-19T22:41:36.223Z,32.60
2023-03-19T22:44:06.898Z,29.90
2023-03-19T22:46:34.894Z,29.00
2023-03-19T22:49:06.547Z,30.50
2023-03-19T22:51:35.140Z,28.40
2023-03-19T22:54:07.219Z,31.70
2023-03-19T22:56:36.300Z,32.70
2023-03-19T22:59:04.391Z,30.00
2023-03-19T23:01:41.409Z,30.00
2023-03-19T23:04:29.151Z,30.80
2023-03-19T23:09:33.326Z,27.50
2023-03-19T23:12:02.395Z,31.60
2023-03-19T23:14:32.285Z,32.90
2023-03-19T23:17:03.593Z,31.90
2023-03-19T23:19:35.679Z,27.80
2023-03-19T23:22:05.859Z,31.60
2023-03-19T23:24:34.110Z,30.60
2023-03-19T23:27:04.449Z,33.70
2023-03-19T23:29:43.668Z,30.10
2023-03-19T23:32:11.975Z,28.60
2023-03-19T23:34:57.790Z,28.60
2023-03-19T23:37:29.263Z,31.10
2023-03-19T23:40:01.938Z,29.90
2023-03-19T23:42:31.584Z,31.10
2023-03-19T23:45:05.058Z,31.50
2023-03-19T23:47:36.342Z,27.90
2023-03-19T23:50:04.621Z,29.70
2023-03-19T23:52:34.113Z,30.70
2023-03-19T23:55:03.052Z,31.10
2023-03-19T23:57:31.213Z,31.60
2023-03-19T23:59:59.453Z,27.20
